createdAt,value
2022-10-13T00:00:52.997Z,12.86
2022-10-13T00:02:56.176Z,12.93
2022-10-13T00:04:58.949Z,12.99
2022-10-13T00:07:04.756Z,12.97
2022-10-13T00:09:07.547Z,12.96
2022-10-13T00:11:13.041Z,13.04
2022-10-13T00:13:16.837Z,13.07
2022-10-13T00:15:20.645Z,12.99
2022-10-13T00:17:24.137Z,13.01
2022-10-13T00:19:27.721Z,12.99
2022-10-13T00:21:30.535Z,12.95
2022-10-13T00:23:36.734Z,12.93
2022-10-13T00:25:44.433Z,12.92
2022-10-13T00:27:48.014Z,12.89
2022-10-13T00:29:50.740Z,12.88
2022-10-13T00:31:53.503Z,12.89
2022-10-13T00:33:58.150Z,12.90
2022-10-13T00:36:00.870Z,12.86
2022-10-13T00:38:03.666Z,12.88
2022-10-13T00:40:09.379Z,12.87
2022-10-13T00:42:13.399Z,12.84
2022-10-13T00:44:59.670Z,12.82
2022-10-13T00:47:02.478Z,12.73
2022-10-13T00:49:09.511Z,12.76
2022-10-13T00:51:16.099Z,12.77
2022-10-13T00:53:22.305Z,12.80
2022-10-13T00:55:31.770Z,12.75
2022-10-13T00:57:34.664Z,12.68
2022-10-13T00:59:40.084Z,12.70
2022-10-13T01:01:42.859Z,12.69
2022-10-13T01:03:45.686Z,12.70
2022-10-13T01:05:49.603Z,12.73
2022-10-13T01:07:53.876Z,12.72
2022-10-13T01:09:56.872Z,12.71
2022-10-13T01:12:10.978Z,12.70
2022-10-13T01:14:21.420Z,12.65
2022-10-13T01:16:29.523Z,12.61
2022-10-13T01:18:41.989Z,12.58
2022-10-13T01:21:20.597Z,12.52
2022-10-13T01:23:50.870Z,12.50
2022-10-13T01:26:18.205Z,12.47
2022-10-13T01:28:42.474Z,12.45
2022-10-13T01:30:51.508Z,12.43
2022-10-13T01:33:18.660Z,12.48
2022-10-13T01:35:30.066Z,12.47
2022-10-13T01:37:37.152Z,12.46
2022-10-13T01:39:46.081Z,12.50
2022-10-13T01:41:54.959Z,12.48
2022-10-13T01:44:05.050Z,12.49
2022-10-13T01:46:15.240Z,12.44
2022-10-13T01:48:18.906Z,12.42
2022-10-13T01:50:27.538Z,12.42
2022-10-13T01:52:36.273Z,12.47
2022-10-13T01:54:39.023Z,12.51
2022-10-13T01:56:41.779Z,12.45
2022-10-13T01:58:45.661Z,12.43
2022-10-13T02:01:00.300Z,12.40
2022-10-13T02:03:13.354Z,12.37
2022-10-13T02:05:26.693Z,12.37
2022-10-13T02:07:36.317Z,12.35
2022-10-13T02:09:45.777Z,12.33
2022-10-13T02:11:55.012Z,12.30
2022-10-13T02:14:05.307Z,12.30
2022-10-13T02:16:08.825Z,12.30
2022-10-13T02:18:15.230Z,12.29
2022-10-13T02:20:20.166Z,12.26
2022-10-13T02:22:27.864Z,12.23
2022-10-13T02:24:31.693Z,12.25
2022-10-13T02:26:36.242Z,12.25
2022-10-13T02:28:42.434Z,12.22
2022-10-13T02:30:46.903Z,12.23
2022-10-13T02:32:49.688Z,12.22
2022-10-13T02:34:53.940Z,12.23
2022-10-13T02:36:56.660Z,12.23
2022-10-13T02:38:59.504Z,12.20
2022-10-13T02:41:02.946Z,12.23
2022-10-13T02:43:05.901Z,12.22
2022-10-13T02:45:10.184Z,12.23
2022-10-13T02:47:13.239Z,12.21
2022-10-13T02:49:15.950Z,12.22
2022-10-13T02:51:20.049Z,12.21
2022-10-13T02:53:22.844Z,12.22
2022-10-13T02:55:25.640Z,12.26
2022-10-13T02:57:32.434Z,12.23
2022-10-13T02:59:35.225Z,12.31
2022-10-13T03:01:41.288Z,12.32
2022-10-13T03:03:44.409Z,12.27
2022-10-13T03:05:47.213Z,12.22
2022-10-13T03:07:51.771Z,12.18
2022-10-13T03:09:54.544Z,12.14
2022-10-13T03:11:57.552Z,12.20
2022-10-13T03:14:00.412Z,12.17
2022-10-13T03:16:03.379Z,12.16
2022-10-13T03:18:06.338Z,12.08
2022-10-13T03:20:10.417Z,12.20
2022-10-13T03:22:15.316Z,12.13
2022-10-13T03:24:19.482Z,11.97
2022-10-13T03:26:22.239Z,11.96
2022-10-13T03:28:25.245Z,11.99
2022-10-13T03:30:29.503Z,12.00
2022-10-13T03:32:32.280Z,11.98
2022-10-13T03:34:35.069Z,11.93
2022-10-13T03:36:37.926Z,11.86
2022-10-13T03:38:41.127Z,11.76
2022-10-13T03:40:46.043Z,11.72
2022-10-13T03:42:48.810Z,11.78
2022-10-13T03:44:56.105Z,11.86
2022-10-13T03:46:59.356Z,11.89
2022-10-13T03:49:02.149Z,11.92
2022-10-13T03:51:06.911Z,11.93
2022-10-13T03:53:12.479Z,11.89
2022-10-13T03:55:15.595Z,11.86
2022-10-13T03:57:19.701Z,11.94
2022-10-13T03:59:22.504Z,11.91
2022-10-13T04:01:27.394Z,11.94
2022-10-13T04:03:30.266Z,11.95
2022-10-13T04:05:34.878Z,11.94
2022-10-13T04:07:37.585Z,11.92
2022-10-13T04:09:47.809Z,11.93
2022-10-13T04:11:52.086Z,11.99
2022-10-13T04:13:57.085Z,12.01
2022-10-13T04:16:03.819Z,12.16
2022-10-13T04:18:23.833Z,12.12
2022-10-13T04:20:27.190Z,12.13
2022-10-13T04:22:30.656Z,12.09
2022-10-13T04:24:33.427Z,12.07
2022-10-13T04:26:37.652Z,12.10
2022-10-13T04:28:43.495Z,12.09
2022-10-13T04:30:49.569Z,12.09
2022-10-13T04:32:52.685Z,12.16
2022-10-13T04:34:55.487Z,12.21
2022-10-13T04:36:58.384Z,12.18
2022-10-13T04:39:01.279Z,12.26
2022-10-13T04:41:04.969Z,12.14
2022-10-13T04:43:07.799Z,12.05
2022-10-13T04:45:11.071Z,12.15
2022-10-13T04:47:17.611Z,12.07
2022-10-13T04:49:20.391Z,12.15
2022-10-13T04:51:25.721Z,12.13
2022-10-13T04:53:29.844Z,12.14
2022-10-13T04:55:32.941Z,12.09
2022-10-13T04:57:35.818Z,12.09
2022-10-13T04:59:38.617Z,12.09
2022-10-13T05:01:41.412Z,12.01
2022-10-13T05:03:52.391Z,12.03
2022-10-13T05:05:55.308Z,12.01
2022-10-13T05:07:58.037Z,12.01
2022-10-13T05:10:00.827Z,12.05
2022-10-13T05:12:03.619Z,12.10
2022-10-13T05:14:06.407Z,12.11
2022-10-13T05:16:10.458Z,12.09
2022-10-13T05:18:13.400Z,12.03
2022-10-13T05:20:17.694Z,12.01
2022-10-13T05:22:20.691Z,12.05
2022-10-13T05:24:31.151Z,12.04
2022-10-13T05:26:36.786Z,12.12
2022-10-13T05:28:40.152Z,12.11
2022-10-13T05:30:42.932Z,12.16
2022-10-13T05:32:46.833Z,12.22
2022-10-13T05:34:52.671Z,12.17
2022-10-13T05:36:56.859Z,12.14
2022-10-13T05:39:01.552Z,12.15
2022-10-13T05:41:04.791Z,11.81
2022-10-13T05:43:07.552Z,11.73
2022-10-13T05:45:12.094Z,11.83
2022-10-13T05:47:14.825Z,11.84
2022-10-13T05:49:17.565Z,11.80
2022-10-13T05:51:25.137Z,11.76
2022-10-13T05:53:31.896Z,11.73
2022-10-13T05:55:34.649Z,11.76
2022-10-13T05:57:41.053Z,11.79
2022-10-13T05:59:48.615Z,11.83
2022-10-13T06:01:53.275Z,11.88
2022-10-13T06:03:59.806Z,11.92
2022-10-13T06:06:02.857Z,12.01
2022-10-13T06:08:05.943Z,12.10
2022-10-13T06:10:11.886Z,12.09
2022-10-13T06:12:14.929Z,11.96
2022-10-13T06:14:17.689Z,12.00
2022-10-13T06:16:20.463Z,11.99
2022-10-13T06:18:23.784Z,12.03
2022-10-13T06:20:27.380Z,11.96
2022-10-13T06:22:30.177Z,11.95
2022-10-13T06:24:32.897Z,11.97
2022-10-13T06:26:36.996Z,11.99
2022-10-13T06:28:39.835Z,11.96
2022-10-13T06:30:46.859Z,11.96
2022-10-13T06:32:50.683Z,11.92
2022-10-13T06:34:53.486Z,11.84
2022-10-13T06:36:56.347Z,11.82
2022-10-13T06:38:59.079Z,11.87
2022-10-13T06:41:02.019Z,11.98
2022-10-13T06:43:09.100Z,12.05
2022-10-13T06:45:17.183Z,11.95
2022-10-13T06:47:19.991Z,12.02
2022-10-13T06:49:24.163Z,12.03
2022-10-13T06:51:26.924Z,12.11
2022-10-13T06:53:29.977Z,12.11
2022-10-13T06:55:32.721Z,12.09
2022-10-13T06:57:35.501Z,12.09
2022-10-13T06:59:41.996Z,12.00
2022-10-13T07:01:44.883Z,11.99
2022-10-13T07:03:50.244Z,12.02
2022-10-13T07:05:55.964Z,12.15
2022-10-13T07:07:58.739Z,12.19
2022-10-13T07:10:01.467Z,12.33
2022-10-13T07:12:04.443Z,12.25
2022-10-13T07:14:07.207Z,12.34
2022-10-13T07:16:12.160Z,12.42
2022-10-13T07:18:14.927Z,12.50
2022-10-13T07:20:17.795Z,12.47
2022-10-13T07:22:20.582Z,12.61
2022-10-13T07:24:23.399Z,12.58
2022-10-13T07:26:26.203Z,12.54
2022-10-13T07:28:29.055Z,12.63
2022-10-13T07:30:32.035Z,12.58
2022-10-13T07:32:36.993Z,12.62
2022-10-13T07:34:42.811Z,12.62
2022-10-13T07:36:45.558Z,12.68
2022-10-13T07:38:48.409Z,12.75
2022-10-13T07:40:51.381Z,12.67
2022-10-13T07:42:54.155Z,12.72
2022-10-13T07:44:56.967Z,12.83
2022-10-13T07:47:02.558Z,12.89
2022-10-13T07:49:06.704Z,12.91
2022-10-13T07:51:11.291Z,12.87
2022-10-13T07:53:15.066Z,12.85
2022-10-13T07:55:18.000Z,12.88
2022-10-13T07:57:20.871Z,12.84
2022-10-13T07:59:23.667Z,12.79
2022-10-13T08:01:26.641Z,12.80
2022-10-13T08:03:30.219Z,12.82
2022-10-13T08:05:34.417Z,12.88
2022-10-13T08:07:39.275Z,12.88
2022-10-13T08:09:42.254Z,13.03
2022-10-13T08:11:45.024Z,12.97
2022-10-13T08:13:49.669Z,13.01
2022-10-13T08:15:56.358Z,13.10
2022-10-13T08:17:59.228Z,13.20
2022-10-13T08:20:02.176Z,13.19
2022-10-13T08:22:09.610Z,13.15
2022-10-13T08:24:15.160Z,13.28
2022-10-13T08:26:21.063Z,13.24
2022-10-13T08:28:25.811Z,13.20
2022-10-13T08:30:28.894Z,13.14
2022-10-13T08:32:31.748Z,13.15
2022-10-13T08:34:36.462Z,13.07
2022-10-13T08:36:39.292Z,12.87
2022-10-13T08:38:43.441Z,13.01
2022-10-13T08:40:48.177Z,12.98
2022-10-13T08:42:52.277Z,12.81
2022-10-13T08:45:39.619Z,12.82
2022-10-13T08:47:39.299Z,12.96
2022-10-13T08:49:46.073Z,13.01
2022-10-13T08:51:48.865Z,13.01
2022-10-13T08:53:53.045Z,13.06
2022-10-13T08:55:58.847Z,13.11
2022-10-13T08:58:07.087Z,13.04
2022-10-13T09:00:13.634Z,13.08
2022-10-13T09:02:24.556Z,13.06
2022-10-13T09:04:31.803Z,13.08
2022-10-13T09:06:38.780Z,13.11
2022-10-13T09:08:46.306Z,13.17
2022-10-13T09:10:52.244Z,13.16
2022-10-13T09:12:55.969Z,13.09
2022-10-13T09:15:01.804Z,13.11
2022-10-13T09:17:19.768Z,13.20
2022-10-13T09:19:27.199Z,13.22
2022-10-13T09:21:30.206Z,13.17
2022-10-13T09:23:34.411Z,13.12
2022-10-13T09:25:42.599Z,13.17
2022-10-13T09:27:50.278Z,13.27
2022-10-13T09:29:53.727Z,13.29
2022-10-13T09:32:14.082Z,13.38
2022-10-13T09:34:25.008Z,13.49
2022-10-13T09:36:34.323Z,13.48
2022-10-13T09:38:37.193Z,13.57
2022-10-13T09:42:54.203Z,13.45
2022-10-13T09:45:00.260Z,13.38
2022-10-13T09:47:05.244Z,13.33
2022-10-13T09:49:22.084Z,13.33
2022-10-13T09:51:45.875Z,13.26
2022-10-13T09:53:54.676Z,13.23
2022-10-13T09:56:09.892Z,13.30
2022-10-13T09:58:16.759Z,13.25
2022-10-13T10:00:22.634Z,13.24
2022-10-13T10:02:32.181Z,13.43
2022-10-13T10:04:41.801Z,13.35
2022-10-13T10:06:46.288Z,13.30
2022-10-13T10:09:04.863Z,13.34
2022-10-13T10:11:13.279Z,13.42
2022-10-13T10:13:17.428Z,13.41
2022-10-13T10:15:25.141Z,13.52
2022-10-13T10:17:34.717Z,13.54
2022-10-13T10:19:48.803Z,13.42
2022-10-13T10:22:03.980Z,13.41
2022-10-13T10:24:22.596Z,13.56
2022-10-13T10:26:32.821Z,13.51
2022-10-13T10:28:48.477Z,13.54
2022-10-13T10:31:01.027Z,13.51
2022-10-13T10:33:09.633Z,13.49
2022-10-13T10:35:15.135Z,13.50
2022-10-13T10:37:21.464Z,13.56
2022-10-13T10:39:33.469Z,13.58
2022-10-13T10:41:45.127Z,13.59
2022-10-13T10:43:53.764Z,13.52
2022-10-13T10:45:58.627Z,13.44
2022-10-13T10:48:05.688Z,13.48
2022-10-13T10:50:14.294Z,13.51
2022-10-13T10:52:25.258Z,13.57
2022-10-13T10:54:49.233Z,13.61
2022-10-13T10:56:56.925Z,13.63
2022-10-13T10:59:12.389Z,13.67
2022-10-13T11:01:25.825Z,13.70
2022-10-13T11:03:41.162Z,13.74
2022-10-13T11:06:01.040Z,13.86
2022-10-13T11:08:04.429Z,13.94
2022-10-13T11:10:22.418Z,14.05
2022-10-13T11:12:25.752Z,14.20
2022-10-13T11:14:31.855Z,14.23
2022-10-13T11:16:39.665Z,14.36
2022-10-13T11:19:05.621Z,14.55
2022-10-13T11:21:08.549Z,14.65
2022-10-13T11:23:32.720Z,14.95
2022-10-13T11:25:39.900Z,14.93
2022-10-13T11:27:46.137Z,14.87
2022-10-13T11:29:56.788Z,14.89
2022-10-13T11:31:59.609Z,14.86
2022-10-13T11:34:03.465Z,14.89
2022-10-13T11:36:37.897Z,14.92
2022-10-13T11:38:58.003Z,14.97
2022-10-13T11:41:13.599Z,15.02
2022-10-13T11:43:32.526Z,15.06
2022-10-13T11:46:09.442Z,15.28
2022-10-13T11:48:53.505Z,15.25
2022-10-13T11:51:10.330Z,15.26
2022-10-13T11:53:18.675Z,15.26
2022-10-13T11:55:31.805Z,15.08
2022-10-13T11:57:34.540Z,15.01
2022-10-13T11:59:38.411Z,15.22
2022-10-13T12:01:46.254Z,15.28
2022-10-13T12:03:50.928Z,15.35
2022-10-13T12:05:56.883Z,15.35
2022-10-13T12:08:05.030Z,15.47
2022-10-13T12:10:18.875Z,15.42
2022-10-13T12:12:23.527Z,15.36
2022-10-13T12:14:33.363Z,15.24
2022-10-13T12:16:36.164Z,15.22
2022-10-13T12:18:41.421Z,15.17
2022-10-13T12:20:44.210Z,15.13
2022-10-13T12:22:48.387Z,15.16
2022-10-13T12:24:59.475Z,15.22
2022-10-13T12:27:11.545Z,15.10
2022-10-13T12:29:15.860Z,15.06
2022-10-13T12:31:21.111Z,15.09
2022-10-13T12:33:29.046Z,15.11
2022-10-13T12:35:34.653Z,15.13
2022-10-13T12:37:38.253Z,15.07
2022-10-13T12:39:41.788Z,15.05
2022-10-13T12:41:46.892Z,15.12
2022-10-13T12:43:51.570Z,15.14
2022-10-13T12:45:54.318Z,15.07
2022-10-13T12:47:57.161Z,15.11
2022-10-13T12:50:24.677Z,15.17
2022-10-13T12:52:28.837Z,15.15
2022-10-13T12:54:33.599Z,15.23
2022-10-13T12:56:36.516Z,15.16
2022-10-13T12:58:44.441Z,15.26
2022-10-13T13:00:57.070Z,15.33
2022-10-13T13:03:01.860Z,15.32
2022-10-13T13:05:04.983Z,15.29
2022-10-13T13:07:26.220Z,15.34
2022-10-13T13:09:31.506Z,15.43
2022-10-13T13:11:36.854Z,15.42
2022-10-13T13:13:45.117Z,15.47
2022-10-13T13:15:52.659Z,15.47
2022-10-13T13:17:58.650Z,15.51
2022-10-13T13:20:01.691Z,15.54
2022-10-13T13:22:05.388Z,15.39
2022-10-13T13:24:21.739Z,15.36
2022-10-13T13:26:26.091Z,15.40
2022-10-13T13:28:31.091Z,15.41
2022-10-13T13:30:34.568Z,15.47
2022-10-13T13:32:37.332Z,15.49
2022-10-13T13:34:40.394Z,15.46
2022-10-13T13:36:43.431Z,15.46
2022-10-13T13:38:46.539Z,15.45
2022-10-13T13:40:49.318Z,15.39
2022-10-13T13:42:53.540Z,15.43
2022-10-13T13:44:56.579Z,15.52
2022-10-13T13:46:59.359Z,15.66
2022-10-13T13:49:02.674Z,15.72
2022-10-13T13:51:05.596Z,15.66
2022-10-13T13:53:08.366Z,15.65
2022-10-13T13:55:11.196Z,15.68
2022-10-13T13:57:15.483Z,15.70
2022-10-13T13:59:19.593Z,15.74
2022-10-13T14:01:23.578Z,15.74
2022-10-13T14:03:26.481Z,15.79
2022-10-13T14:05:29.306Z,15.80
2022-10-13T14:07:32.417Z,15.84
2022-10-13T14:09:35.230Z,15.75
2022-10-13T14:11:38.026Z,15.71
2022-10-13T14:13:40.800Z,15.76
2022-10-13T14:15:44.991Z,15.83
2022-10-13T14:17:47.731Z,15.85
2022-10-13T14:19:50.481Z,15.83
2022-10-13T14:21:53.264Z,15.78
2022-10-13T14:23:56.136Z,15.83
2022-10-13T14:26:01.861Z,15.84
2022-10-13T14:28:05.251Z,15.82
2022-10-13T14:30:09.103Z,15.70
2022-10-13T14:32:13.428Z,15.70
2022-10-13T14:34:16.289Z,15.71
2022-10-13T14:36:19.079Z,15.79
2022-10-13T14:38:21.868Z,15.75
2022-10-13T14:40:24.772Z,15.77
2022-10-13T14:42:27.505Z,15.79
2022-10-13T14:44:30.280Z,15.81
2022-10-13T14:46:33.062Z,15.84
2022-10-13T14:48:38.451Z,15.89
2022-10-13T14:50:41.155Z,15.89
2022-10-13T14:52:43.930Z,15.85
2022-10-13T14:54:47.500Z,15.88
2022-10-13T14:56:50.316Z,15.91
2022-10-13T14:58:54.701Z,15.93
2022-10-13T15:00:58.131Z,15.91
2022-10-13T15:03:00.926Z,15.87
2022-10-13T15:05:05.879Z,15.88
2022-10-13T15:07:08.764Z,15.87
2022-10-13T15:09:12.688Z,15.91
2022-10-13T15:11:16.789Z,15.91
2022-10-13T15:13:19.516Z,15.88
2022-10-13T15:15:24.075Z,15.77
2022-10-13T15:17:27.973Z,15.80
2022-10-13T15:19:30.778Z,15.84
2022-10-13T15:21:34.980Z,15.87
2022-10-13T15:23:39.765Z,15.88
2022-10-13T15:25:50.978Z,15.89
2022-10-13T15:27:53.869Z,15.85
2022-10-13T15:29:56.609Z,15.84
2022-10-13T15:32:10.256Z,15.87
2022-10-13T15:34:13.015Z,15.83
2022-10-13T15:36:16.155Z,15.84
2022-10-13T15:38:21.858Z,15.88
2022-10-13T15:40:24.767Z,15.83
2022-10-13T15:42:27.613Z,15.86
2022-10-13T15:44:51.118Z,15.82
2022-10-13T15:47:07.416Z,15.78
2022-10-13T15:49:10.917Z,15.77
2022-10-13T15:51:16.655Z,15.80
2022-10-13T15:53:21.068Z,15.77
2022-10-13T15:55:23.992Z,15.74
2022-10-13T15:57:26.891Z,15.74
2022-10-13T15:59:29.693Z,15.70
2022-10-13T16:01:32.981Z,15.68
2022-10-13T16:03:36.027Z,15.67
2022-10-13T16:05:41.105Z,15.66
2022-10-13T16:07:44.078Z,15.64
2022-10-13T16:09:48.160Z,15.61
2022-10-13T16:11:53.247Z,15.58
2022-10-13T16:13:56.197Z,15.55
2022-10-13T16:15:59.430Z,15.53
2022-10-13T16:18:02.217Z,15.52
2022-10-13T16:20:06.382Z,15.49
2022-10-13T16:22:09.332Z,15.47
2022-10-13T16:24:12.158Z,15.45
2022-10-13T16:26:18.166Z,15.44
2022-10-13T16:28:21.178Z,15.42
2022-10-13T16:30:24.063Z,15.42
2022-10-13T16:32:26.927Z,15.45
2022-10-13T16:34:30.144Z,15.41
2022-10-13T16:36:33.024Z,15.38
2022-10-13T16:38:36.024Z,15.38
2022-10-13T16:40:39.709Z,15.36
2022-10-13T16:42:44.925Z,15.36
2022-10-13T16:44:47.757Z,15.36
2022-10-13T16:46:52.426Z,15.36
2022-10-13T16:48:55.070Z,15.22
2022-10-13T16:50:57.973Z,15.26
2022-10-13T16:53:01.283Z,15.26
2022-10-13T16:55:04.679Z,15.25
2022-10-13T16:57:07.467Z,15.25
2022-10-13T16:59:12.129Z,15.25
2022-10-13T17:01:14.815Z,15.11
2022-10-13T17:03:17.808Z,15.13
2022-10-13T17:05:23.829Z,15.17
2022-10-13T17:07:29.537Z,15.17
2022-10-13T17:09:32.634Z,15.18
2022-10-13T17:11:35.718Z,15.17
2022-10-13T17:13:41.037Z,15.17
2022-10-13T17:15:51.624Z,15.16
2022-10-13T17:17:54.422Z,15.14
2022-10-13T17:19:57.211Z,15.14
2022-10-13T17:21:59.952Z,15.14
2022-10-13T17:24:02.764Z,15.12
2022-10-13T17:26:07.659Z,15.11
2022-10-13T17:28:10.583Z,15.12
2022-10-13T17:30:13.349Z,15.13
2022-10-13T17:32:17.459Z,15.15
2022-10-13T17:34:20.244Z,15.11
2022-10-13T17:36:26.501Z,15.10
2022-10-13T17:38:30.322Z,15.12
2022-10-13T17:40:34.695Z,15.11
2022-10-13T17:42:38.441Z,15.14
2022-10-13T17:44:42.581Z,15.13
2022-10-13T17:46:48.397Z,15.10
2022-10-13T17:48:52.653Z,15.11
2022-10-13T17:50:55.432Z,15.08
2022-10-13T17:52:58.404Z,15.08
2022-10-13T17:55:01.181Z,15.08
2022-10-13T17:57:04.066Z,15.07
2022-10-13T17:59:06.875Z,15.06
2022-10-13T18:01:13.862Z,15.07
2022-10-13T18:03:16.764Z,15.03
2022-10-13T18:05:21.979Z,15.04
2022-10-13T18:07:24.825Z,14.99
2022-10-13T18:09:27.632Z,14.99
2022-10-13T18:11:30.496Z,14.98
2022-10-13T18:13:33.774Z,14.98
2022-10-13T18:15:37.017Z,14.96
2022-10-13T18:17:39.783Z,14.95
2022-10-13T18:19:42.842Z,14.95
2022-10-13T18:21:46.983Z,14.96
2022-10-13T18:23:50.296Z,14.93
2022-10-13T18:25:53.088Z,14.94
2022-10-13T18:27:57.122Z,14.95
2022-10-13T18:29:59.982Z,14.92
2022-10-13T18:32:05.090Z,14.91
2022-10-13T18:34:11.138Z,14.92
2022-10-13T18:36:16.259Z,14.89
2022-10-13T18:38:20.362Z,14.88
2022-10-13T18:40:23.114Z,14.84
2022-10-13T18:42:27.616Z,14.86
2022-10-13T18:44:30.358Z,14.84
2022-10-13T18:46:34.345Z,14.84
2022-10-13T18:48:37.197Z,14.84
2022-10-13T18:50:41.488Z,14.84
2022-10-13T18:52:44.333Z,14.83
2022-10-13T18:54:50.620Z,14.86
2022-10-13T18:56:54.537Z,14.86
2022-10-13T18:58:59.920Z,14.90
2022-10-13T19:01:04.397Z,14.91
2022-10-13T19:03:07.660Z,14.90
2022-10-13T19:05:11.358Z,14.88
2022-10-13T19:07:14.118Z,14.89
2022-10-13T19:09:18.055Z,14.88
2022-10-13T19:11:22.428Z,14.89
2022-10-13T19:13:26.022Z,14.90
2022-10-13T19:15:28.859Z,14.92
2022-10-13T19:17:33.559Z,14.91
2022-10-13T19:19:36.384Z,14.95
2022-10-13T19:21:39.916Z,14.97
2022-10-13T19:23:44.994Z,14.93
2022-10-13T19:25:57.251Z,14.95
2022-10-13T19:28:01.395Z,14.96
2022-10-13T19:30:04.765Z,14.92
2022-10-13T19:32:07.765Z,14.92
2022-10-13T19:34:11.783Z,14.95
2022-10-13T19:36:22.601Z,14.97
2022-10-13T19:38:25.412Z,14.93
2022-10-13T19:40:28.176Z,14.91
2022-10-13T19:42:31.040Z,14.91
2022-10-13T19:44:36.570Z,14.91
2022-10-13T19:46:39.816Z,14.89
2022-10-13T19:48:43.198Z,14.87
2022-10-13T19:50:47.121Z,14.86
2022-10-13T19:52:51.325Z,14.87
2022-10-13T19:54:54.250Z,14.87
2022-10-13T19:56:57.079Z,14.92
2022-10-13T19:59:00.429Z,14.93
2022-10-13T20:01:06.718Z,14.92
2022-10-13T20:03:09.777Z,14.89
2022-10-13T20:05:15.673Z,14.89
2022-10-13T20:07:18.911Z,14.88
2022-10-13T20:09:22.001Z,14.90
2022-10-13T20:11:24.722Z,14.89
2022-10-13T20:13:27.488Z,14.92
2022-10-13T20:15:40.094Z,14.88
2022-10-13T20:17:44.270Z,14.88
2022-10-13T20:19:47.116Z,14.81
2022-10-13T20:21:51.606Z,14.86
2022-10-13T20:23:54.381Z,14.73
2022-10-13T20:25:57.167Z,14.78
2022-10-13T20:28:04.312Z,14.82
2022-10-13T20:30:08.295Z,14.82
2022-10-13T20:32:11.106Z,14.82
2022-10-13T20:34:15.250Z,14.82
2022-10-13T20:36:18.789Z,14.82
2022-10-13T20:38:21.538Z,14.81
2022-10-13T20:40:24.279Z,14.83
2022-10-13T20:42:27.080Z,14.82
2022-10-13T20:44:29.887Z,14.83
2022-10-13T20:46:32.636Z,14.81
2022-10-13T20:49:05.203Z,14.82
2022-10-13T20:51:05.600Z,14.82
2022-10-13T20:53:08.392Z,14.81
2022-10-13T20:55:11.558Z,14.86
2022-10-13T20:57:14.351Z,14.83
2022-10-13T20:59:17.258Z,14.81
2022-10-13T21:01:22.151Z,14.78
2022-10-13T21:03:25.813Z,14.78
2022-10-13T21:05:29.497Z,14.75
2022-10-13T21:07:33.602Z,14.80
2022-10-13T21:09:36.653Z,14.74
2022-10-13T21:11:39.870Z,14.72
2022-10-13T21:13:44.517Z,14.73
2022-10-13T21:15:47.158Z,14.57
2022-10-13T21:17:53.784Z,14.60
2022-10-13T21:19:56.614Z,14.65
2022-10-13T21:21:59.384Z,14.66
2022-10-13T21:24:06.165Z,14.69
2022-10-13T21:26:10.447Z,14.69
2022-10-13T21:28:13.345Z,14.68
2022-10-13T21:30:16.237Z,14.68
2022-10-13T21:32:19.398Z,14.65
2022-10-13T21:34:23.225Z,14.68
2022-10-13T21:36:27.698Z,14.67
2022-10-13T21:38:30.391Z,14.68
2022-10-13T21:40:34.503Z,14.66
2022-10-13T21:42:37.501Z,14.65
2022-10-13T21:44:40.273Z,14.68
2022-10-13T21:46:43.971Z,14.66
2022-10-13T21:48:48.697Z,14.65
2022-10-13T21:50:51.428Z,14.64
2022-10-13T21:52:54.194Z,14.67
2022-10-13T21:54:59.767Z,14.64
2022-10-13T21:57:03.895Z,14.63
2022-10-13T21:59:07.177Z,14.59
2022-10-13T22:01:10.255Z,14.59
2022-10-13T22:03:13.053Z,14.59
2022-10-13T22:05:16.012Z,14.58
2022-10-13T22:07:21.036Z,14.56
2022-10-13T22:09:23.913Z,14.54
2022-10-13T22:11:31.295Z,14.55
2022-10-13T22:13:36.369Z,14.53
2022-10-13T22:15:39.141Z,14.55
2022-10-13T22:17:41.885Z,14.55
2022-10-13T22:19:44.674Z,14.55
2022-10-13T22:21:48.910Z,14.55
2022-10-13T22:23:51.776Z,14.52
2022-10-13T22:25:55.084Z,14.50
2022-10-13T22:27:57.832Z,14.50
2022-10-13T22:30:01.903Z,14.50
2022-10-13T22:32:05.073Z,14.49
2022-10-13T22:34:07.884Z,14.48
2022-10-13T22:36:13.299Z,14.53
2022-10-13T22:38:16.463Z,14.64
2022-10-13T22:40:19.316Z,14.60
2022-10-13T22:42:22.182Z,14.55
2022-10-13T22:44:24.969Z,14.53
2022-10-13T22:46:30.951Z,14.51
2022-10-13T22:48:39.693Z,14.52
2022-10-13T22:50:45.754Z,14.55
2022-10-13T22:52:48.507Z,14.51
2022-10-13T22:54:51.229Z,14.51
2022-10-13T22:56:54.008Z,14.51
2022-10-13T22:58:58.720Z,14.49
2022-10-13T23:01:06.186Z,14.49
2022-10-13T23:03:14.040Z,14.49
2022-10-13T23:05:21.837Z,14.50
2022-10-13T23:07:24.661Z,14.48
2022-10-13T23:09:27.492Z,14.46
2022-10-13T23:11:30.255Z,14.49
2022-10-13T23:13:33.094Z,14.47
2022-10-13T23:15:38.795Z,14.44
2022-10-13T23:17:41.567Z,14.43
2022-10-13T23:19:45.785Z,14.45
2022-10-13T23:21:48.581Z,14.44
2022-10-13T23:23:55.602Z,14.47
2022-10-13T23:26:03.086Z,14.49
2022-10-13T23:28:06.185Z,14.50
2022-10-13T23:30:10.015Z,14.48
2022-10-13T23:32:12.780Z,14.45
2022-10-13T23:34:18.210Z,14.45
2022-10-13T23:36:24.920Z,14.48
2022-10-13T23:38:30.981Z,14.47
2022-10-13T23:40:34.649Z,14.42
2022-10-13T23:42:37.412Z,14.43
2022-10-13T23:44:40.192Z,14.41
2022-10-13T23:46:42.968Z,14.40
2022-10-13T23:48:46.695Z,14.42
2022-10-13T23:50:49.425Z,14.39
2022-10-13T23:52:53.543Z,14.39
2022-10-13T23:54:56.321Z,14.38
2022-10-13T23:56:59.849Z,14.34
2022-10-13T23:59:02.703Z,14.34
